sensor_id;sensor_type;location;lat;lon;timestamp;P1;durP1;ratioP1;P2;durP2;ratioP2
3000;SDS011;1510;51.072;6.678;2023-02-20T00:00:16;806.20;;;736.40;;
3000;SDS011;1510;51.072;6.678;2023-02-20T00:02:46;806.10;;;735.23;;
3000;SDS011;1510;51.072;6.678;2023-02-20T00:05:13;808.23;;;736.70;;
3000;SDS011;1510;51.072;6.678;2023-02-20T00:07:40;805.67;;;732.57;;
3000;SDS011;1510;51.072;6.678;2023-02-20T00:10:08;807.27;;;732.03;;
3000;SDS011;1510;51.072;6.678;2023-02-20T00:12:37;792.67;;;718.40;;
3000;SDS011;1510;51.072;6.678;2023-02-20T00:15:04;789.67;;;715.20;;
3000;SDS011;1510;51.072;6.678;2023-02-20T00:17:31;790.73;;;714.37;;
3000;SDS011;1510;51.072;6.678;2023-02-20T00:19:58;780.67;;;702.77;;
3000;SDS011;1510;51.072;6.678;2023-02-20T00:22:25;757.10;;;680.80;;
3000;SDS011;1510;51.072;6.678;2023-02-20T00:24:52;755.13;;;679.53;;
3000;SDS011;1510;51.072;6.678;2023-02-20T00:27:19;753.57;;;677.80;;
3000;SDS011;1510;51.072;6.678;2023-02-20T00:29:47;760.33;;;685.17;;
3000;SDS011;1510;51.072;6.678;2023-02-20T00:32:14;761.20;;;685.87;;
3000;SDS011;1510;51.072;6.678;2023-02-20T00:34:41;763.97;;;688.33;;
3000;SDS011;1510;51.072;6.678;2023-02-20T00:37:08;761.00;;;685.57;;
3000;SDS011;1510;51.072;6.678;2023-02-20T00:39:35;756.67;;;681.87;;
3000;SDS011;1510;51.072;6.678;2023-02-20T00:42:01;758.20;;;682.80;;
3000;SDS011;1510;51.072;6.678;2023-02-20T00:44:28;761.33;;;686.40;;
3000;SDS011;1510;51.072;6.678;2023-02-20T00:46:56;762.80;;;687.80;;
3000;SDS011;1510;51.072;6.678;2023-02-20T00:49:23;762.40;;;686.73;;
3000;SDS011;1510;51.072;6.678;2023-02-20T00:51:50;756.20;;;680.63;;
3000;SDS011;1510;51.072;6.678;2023-02-20T00:54:16;751.17;;;674.97;;
3000;SDS011;1510;51.072;6.678;2023-02-20T00:56:43;756.90;;;682.10;;
3000;SDS011;1510;51.072;6.678;2023-02-20T00:59:10;756.93;;;683.10;;
3000;SDS011;1510;51.072;6.678;2023-02-20T01:01:37;754.70;;;681.10;;
3000;SDS011;1510;51.072;6.678;2023-02-20T01:04:05;755.80;;;683.17;;
3000;SDS011;1510;51.072;6.678;2023-02-20T01:06:32;761.43;;;690.17;;
3000;SDS011;1510;51.072;6.678;2023-02-20T01:08:58;758.77;;;688.77;;
3000;SDS011;1510;51.072;6.678;2023-02-20T01:11:25;760.10;;;690.93;;
3000;SDS011;1510;51.072;6.678;2023-02-20T01:13:52;762.80;;;694.30;;
3000;SDS011;1510;51.072;6.678;2023-02-20T01:16:18;768.73;;;701.47;;
3000;SDS011;1510;51.072;6.678;2023-02-20T01:18:47;771.53;;;704.93;;
3000;SDS011;1510;51.072;6.678;2023-02-20T01:21:17;782.23;;;716.50;;
3000;SDS011;1510;51.072;6.678;2023-02-20T01:23:44;780.77;;;715.20;;
3000;SDS011;1510;51.072;6.678;2023-02-20T01:26:10;783.13;;;719.03;;
3000;SDS011;1510;51.072;6.678;2023-02-20T01:28:37;786.00;;;722.80;;
3000;SDS011;1510;51.072;6.678;2023-02-20T01:31:04;792.03;;;728.67;;
3000;SDS011;1510;51.072;6.678;2023-02-20T01:33:32;784.03;;;721.23;;
3000;SDS011;1510;51.072;6.678;2023-02-20T01:35:58;789.43;;;726.70;;
3000;SDS011;1510;51.072;6.678;2023-02-20T01:38:27;791.77;;;729.40;;
3000;SDS011;1510;51.072;6.678;2023-02-20T01:40:53;776.93;;;715.73;;
3000;SDS011;1510;51.072;6.678;2023-02-20T01:43:20;769.70;;;708.20;;
3000;SDS011;1510;51.072;6.678;2023-02-20T01:45:47;772.57;;;711.97;;
3000;SDS011;1510;51.072;6.678;2023-02-20T01:48:20;759.97;;;700.23;;
3000;SDS011;1510;51.072;6.678;2023-02-20T01:50:47;767.27;;;707.80;;
3000;SDS011;1510;51.072;6.678;2023-02-20T01:53:19;753.47;;;693.90;;
3000;SDS011;1510;51.072;6.678;2023-02-20T01:55:50;750.27;;;688.40;;
3000;SDS011;1510;51.072;6.678;2023-02-20T01:58:22;743.03;;;682.70;;
3000;SDS011;1510;51.072;6.678;2023-02-20T02:00:53;733.47;;;674.30;;
3000;SDS011;1510;51.072;6.678;2023-02-20T02:03:21;721.83;;;665.13;;
3000;SDS011;1510;51.072;6.678;2023-02-20T02:05:51;723.80;;;670.70;;
3000;SDS011;1510;51.072;6.678;2023-02-20T02:08:21;701.57;;;651.67;;
3000;SDS011;1510;51.072;6.678;2023-02-20T02:10:51;686.93;;;640.93;;
3000;SDS011;1510;51.072;6.678;2023-02-20T02:13:22;687.60;;;643.20;;
3000;SDS011;1510;51.072;6.678;2023-02-20T02:15:49;677.30;;;635.63;;
3000;SDS011;1510;51.072;6.678;2023-02-20T02:18:23;680.33;;;639.07;;
3000;SDS011;1510;51.072;6.678;2023-02-20T02:21:21;668.70;;;630.10;;
3000;SDS011;1510;51.072;6.678;2023-02-20T02:24:23;667.30;;;629.03;;
3000;SDS011;1510;51.072;6.678;2023-02-20T02:27:15;676.13;;;636.57;;
3000;SDS011;1510;51.072;6.678;2023-02-20T02:30:21;675.87;;;635.97;;
3000;SDS011;1510;51.072;6.678;2023-02-20T02:33:21;690.13;;;649.60;;
3000;SDS011;1510;51.072;6.678;2023-02-20T02:36:27;704.80;;;661.87;;
3000;SDS011;1510;51.072;6.678;2023-02-20T02:39:06;708.50;;;664.70;;
3000;SDS011;1510;51.072;6.678;2023-02-20T02:41:39;710.37;;;665.37;;
3000;SDS011;1510;51.072;6.678;2023-02-20T02:44:12;704.17;;;659.50;;
3000;SDS011;1510;51.072;6.678;2023-02-20T02:46:45;704.67;;;658.70;;
3000;SDS011;1510;51.072;6.678;2023-02-20T02:49:20;680.53;;;637.87;;
3000;SDS011;1510;51.072;6.678;2023-02-20T02:51:53;686.67;;;642.70;;
3000;SDS011;1510;51.072;6.678;2023-02-20T02:54:23;672.20;;;630.70;;
3000;SDS011;1510;51.072;6.678;2023-02-20T02:56:52;672.93;;;631.90;;
3000;SDS011;1510;51.072;6.678;2023-02-20T02:59:20;686.87;;;645.73;;
3000;SDS011;1510;51.072;6.678;2023-02-20T03:01:52;680.00;;;639.77;;
3000;SDS011;1510;51.072;6.678;2023-02-20T03:04:22;685.17;;;644.10;;
3000;SDS011;1510;51.072;6.678;2023-02-20T03:06:54;695.10;;;653.07;;
3000;SDS011;1510;51.072;6.678;2023-02-20T03:09:25;686.47;;;646.77;;
3000;SDS011;1510;51.072;6.678;2023-02-20T03:11:54;703.23;;;660.43;;
3000;SDS011;1510;51.072;6.678;2023-02-20T03:14:24;700.77;;;659.07;;
3000;SDS011;1510;51.072;6.678;2023-02-20T03:17:12;688.30;;;646.70;;
3000;SDS011;1510;51.072;6.678;2023-02-20T03:19:43;696.03;;;653.00;;
3000;SDS011;1510;51.072;6.678;2023-02-20T03:22:15;674.40;;;634.17;;
3000;SDS011;1510;51.072;6.678;2023-02-20T03:24:47;679.10;;;639.10;;
3000;SDS011;1510;51.072;6.678;2023-02-20T03:27:22;669.23;;;630.07;;
3000;SDS011;1510;51.072;6.678;2023-02-20T03:30:03;684.50;;;644.20;;
3000;SDS011;1510;51.072;6.678;2023-02-20T03:32:33;673.33;;;633.53;;
3000;SDS011;1510;51.072;6.678;2023-02-20T03:35:18;653.40;;;616.00;;
3000;SDS011;1510;51.072;6.678;2023-02-20T03:38:07;640.33;;;603.73;;
3000;SDS011;1510;51.072;6.678;2023-02-20T03:40:52;635.27;;;600.13;;
3000;SDS011;1510;51.072;6.678;2023-02-20T03:43:39;618.23;;;584.40;;
3000;SDS011;1510;51.072;6.678;2023-02-20T03:46:07;624.97;;;591.63;;
3000;SDS011;1510;51.072;6.678;2023-02-20T03:48:37;623.23;;;590.53;;
3000;SDS011;1510;51.072;6.678;2023-02-20T03:51:07;611.23;;;579.40;;
3000;SDS011;1510;51.072;6.678;2023-02-20T03:53:54;604.53;;;572.67;;
3000;SDS011;1510;51.072;6.678;2023-02-20T03:56:22;597.10;;;566.90;;
3000;SDS011;1510;51.072;6.678;2023-02-20T03:58:53;605.30;;;573.80;;
3000;SDS011;1510;51.072;6.678;2023-02-20T04:01:23;593.67;;;563.67;;
3000;SDS011;1510;51.072;6.678;2023-02-20T04:03:52;605.33;;;574.33;;
3000;SDS011;1510;51.072;6.678;2023-02-20T04:06:24;618.27;;;586.47;;
3000;SDS011;1510;51.072;6.678;2023-02-20T04:08:57;606.80;;;576.40;;
3000;SDS011;1510;51.072;6.678;2023-02-20T04:11:27;584.97;;;556.00;;
3000;SDS011;1510;51.072;6.678;2023-02-20T04:13:57;566.87;;;539.73;;
3000;SDS011;1510;51.072;6.678;2023-02-20T04:16:25;576.30;;;549.20;;
3000;SDS011;1510;51.072;6.678;2023-02-20T04:18:52;586.10;;;558.30;;
3000;SDS011;1510;51.072;6.678;2023-02-20T04:21:20;597.77;;;569.57;;
3000;SDS011;1510;51.072;6.678;2023-02-20T04:23:58;640.23;;;608.13;;
3000;SDS011;1510;51.072;6.678;2023-02-20T04:26:31;661.53;;;627.47;;
3000;SDS011;1510;51.072;6.678;2023-02-20T04:28:58;674.03;;;637.63;;
3000;SDS011;1510;51.072;6.678;2023-02-20T04:31:25;666.33;;;629.97;;
3000;SDS011;1510;51.072;6.678;2023-02-20T04:33:52;667.07;;;629.80;;
3000;SDS011;1510;51.072;6.678;2023-02-20T04:36:19;678.23;;;639.57;;
3000;SDS011;1510;51.072;6.678;2023-02-20T04:38:46;690.03;;;649.63;;
3000;SDS011;1510;51.072;6.678;2023-02-20T04:41:14;692.13;;;650.27;;
3000;SDS011;1510;51.072;6.678;2023-02-20T04:43:41;692.90;;;652.27;;
3000;SDS011;1510;51.072;6.678;2023-02-20T04:46:08;704.33;;;661.77;;
3000;SDS011;1510;51.072;6.678;2023-02-20T04:48:35;713.33;;;670.17;;
3000;SDS011;1510;51.072;6.678;2023-02-20T04:51:02;728.63;;;683.27;;
3000;SDS011;1510;51.072;6.678;2023-02-20T04:53:29;732.40;;;685.70;;
3000;SDS011;1510;51.072;6.678;2023-02-20T04:55:55;739.03;;;688.70;;
3000;SDS011;1510;51.072;6.678;2023-02-20T04:58:23;735.17;;;684.30;;
3000;SDS011;1510;51.072;6.678;2023-02-20T05:00:50;737.50;;;684.37;;
3000;SDS011;1510;51.072;6.678;2023-02-20T05:03:17;727.43;;;673.20;;
3000;SDS011;1510;51.072;6.678;2023-02-20T05:05:44;714.50;;;661.50;;
3000;SDS011;1510;51.072;6.678;2023-02-20T05:08:10;720.03;;;667.03;;
3000;SDS011;1510;51.072;6.678;2023-02-20T05:10:37;721.60;;;667.27;;
3000;SDS011;1510;51.072;6.678;2023-02-20T05:13:04;713.30;;;659.03;;
3000;SDS011;1510;51.072;6.678;2023-02-20T05:15:32;706.80;;;653.97;;
3000;SDS011;1510;51.072;6.678;2023-02-20T05:17:58;714.40;;;660.53;;
3000;SDS011;1510;51.072;6.678;2023-02-20T05:20:25;712.80;;;660.17;;
3000;SDS011;1510;51.072;6.678;2023-02-20T05:23:06;719.80;;;666.70;;
3000;SDS011;1510;51.072;6.678;2023-02-20T05:25:33;717.33;;;665.30;;
3000;SDS011;1510;51.072;6.678;2023-02-20T05:28:00;710.00;;;657.23;;
3000;SDS011;1510;51.072;6.678;2023-02-20T05:30:26;718.40;;;665.97;;
3000;SDS011;1510;51.072;6.678;2023-02-20T05:32:54;708.97;;;657.27;;
3000;SDS011;1510;51.072;6.678;2023-02-20T05:35:21;722.70;;;671.07;;
3000;SDS011;1510;51.072;6.678;2023-02-20T05:37:48;710.37;;;659.20;;
3000;SDS011;1510;51.072;6.678;2023-02-20T05:40:14;706.23;;;655.40;;
3000;SDS011;1510;51.072;6.678;2023-02-20T05:42:41;712.47;;;661.23;;
3000;SDS011;1510;51.072;6.678;2023-02-20T05:45:08;709.00;;;659.80;;
3000;SDS011;1510;51.072;6.678;2023-02-20T05:47:35;718.97;;;669.37;;
3000;SDS011;1510;51.072;6.678;2023-02-20T05:50:04;714.70;;;664.10;;
3000;SDS011;1510;51.072;6.678;2023-02-20T05:52:31;723.97;;;673.47;;
3000;SDS011;1510;51.072;6.678;2023-02-20T05:55:01;716.77;;;665.67;;
3000;SDS011;1510;51.072;6.678;2023-02-20T05:57:28;731.73;;;681.03;;
3000;SDS011;1510;51.072;6.678;2023-02-20T05:59:55;736.33;;;685.03;;
3000;SDS011;1510;51.072;6.678;2023-02-20T06:02:21;739.37;;;686.30;;
3000;SDS011;1510;51.072;6.678;2023-02-20T06:04:48;734.80;;;682.27;;
3000;SDS011;1510;51.072;6.678;2023-02-20T06:07:16;733.10;;;679.87;;
3000;SDS011;1510;51.072;6.678;2023-02-20T06:09:43;728.80;;;676.13;;
3000;SDS011;1510;51.072;6.678;2023-02-20T06:12:10;731.60;;;679.37;;
3000;SDS011;1510;51.072;6.678;2023-02-20T06:14:38;735.87;;;683.00;;
3000;SDS011;1510;51.072;6.678;2023-02-20T06:17:05;738.30;;;685.40;;
3000;SDS011;1510;51.072;6.678;2023-02-20T06:19:32;738.37;;;683.97;;
3000;SDS011;1510;51.072;6.678;2023-02-20T06:21:59;734.60;;;680.03;;
3000;SDS011;1510;51.072;6.678;2023-02-20T06:24:29;735.63;;;678.60;;
3000;SDS011;1510;51.072;6.678;2023-02-20T06:26:56;750.83;;;691.63;;
3000;SDS011;1510;51.072;6.678;2023-02-20T06:29:23;748.00;;;688.27;;
3000;SDS011;1510;51.072;6.678;2023-02-20T06:31:50;757.07;;;697.13;;
3000;SDS011;1510;51.072;6.678;2023-02-20T06:34:16;742.73;;;684.67;;
3000;SDS011;1510;51.072;6.678;2023-02-20T06:36:44;749.17;;;691.57;;
3000;SDS011;1510;51.072;6.678;2023-02-20T06:39:13;739.50;;;681.20;;
3000;SDS011;1510;51.072;6.678;2023-02-20T06:41:41;749.40;;;690.13;;
3000;SDS011;1510;51.072;6.678;2023-02-20T06:44:09;745.90;;;687.73;;
3000;SDS011;1510;51.072;6.678;2023-02-20T06:46:36;736.80;;;679.30;;
3000;SDS011;1510;51.072;6.678;2023-02-20T06:49:02;740.00;;;682.90;;
3000;SDS011;1510;51.072;6.678;2023-02-20T06:51:30;733.47;;;676.73;;
3000;SDS011;1510;51.072;6.678;2023-02-20T06:53:59;732.63;;;676.83;;
3000;SDS011;1510;51.072;6.678;2023-02-20T06:56:27;728.93;;;674.20;;
3000;SDS011;1510;51.072;6.678;2023-02-20T06:58:56;721.37;;;668.07;;
3000;SDS011;1510;51.072;6.678;2023-02-20T07:01:25;704.57;;;656.13;;
3000;SDS011;1510;51.072;6.678;2023-02-20T07:03:52;690.50;;;645.93;;
3000;SDS011;1510;51.072;6.678;2023-02-20T07:06:19;661.70;;;621.77;;
3000;SDS011;1510;51.072;6.678;2023-02-20T07:08:46;634.60;;;598.30;;
3000;SDS011;1510;51.072;6.678;2023-02-20T07:11:13;588.93;;;558.40;;
3000;SDS011;1510;51.072;6.678;2023-02-20T07:13:43;544.70;;;517.40;;
3000;SDS011;1510;51.072;6.678;2023-02-20T07:16:11;499.50;;;474.90;;
3000;SDS011;1510;51.072;6.678;2023-02-20T07:18:37;399.07;;;381.27;;
3000;SDS011;1510;51.072;6.678;2023-02-20T07:21:04;379.40;;;363.30;;
3000;SDS011;1510;51.072;6.678;2023-02-20T07:23:31;388.73;;;372.03;;
3000;SDS011;1510;51.072;6.678;2023-02-20T07:25:58;372.10;;;356.17;;
3000;SDS011;1510;51.072;6.678;2023-02-20T07:28:25;346.10;;;331.37;;
3000;SDS011;1510;51.072;6.678;2023-02-20T07:30:51;284.30;;;272.33;;
3000;SDS011;1510;51.072;6.678;2023-02-20T07:33:19;227.97;;;218.53;;
3000;SDS011;1510;51.072;6.678;2023-02-20T07:35:46;215.33;;;206.50;;
3000;SDS011;1510;51.072;6.678;2023-02-20T07:38:13;210.93;;;201.33;;
3000;SDS011;1510;51.072;6.678;2023-02-20T07:40:40;207.43;;;198.93;;
3000;SDS011;1510;51.072;6.678;2023-02-20T07:43:07;183.80;;;176.40;;
3000;SDS011;1510;51.072;6.678;2023-02-20T07:45:33;177.50;;;169.80;;
3000;SDS011;1510;51.072;6.678;2023-02-20T07:48:01;150.40;;;143.93;;
3000;SDS011;1510;51.072;6.678;2023-02-20T07:50:29;162.80;;;155.43;;
3000;SDS011;1510;51.072;6.678;2023-02-20T07:52:56;132.43;;;126.63;;
3000;SDS011;1510;51.072;6.678;2023-02-20T07:55:23;93.53;;;89.17;;
3000;SDS011;1510;51.072;6.678;2023-02-20T07:57:49;61.03;;;56.73;;
3000;SDS011;1510;51.072;6.678;2023-02-20T08:00:18;48.67;;;45.83;;
3000;SDS011;1510;51.072;6.678;2023-02-20T08:02:47;42.03;;;39.13;;
3000;SDS011;1510;51.072;6.678;2023-02-20T08:05:20;48.13;;;45.13;;
3000;SDS011;1510;51.072;6.678;2023-02-20T08:07:49;36.60;;;33.00;;
3000;SDS011;1510;51.072;6.678;2023-02-20T08:10:17;30.90;;;28.60;;
3000;SDS011;1510;51.072;6.678;2023-02-20T08:12:45;42.70;;;39.47;;
3000;SDS011;1510;51.072;6.678;2023-02-20T08:15:13;27.30;;;21.23;;
3000;SDS011;1510;51.072;6.678;2023-02-20T08:17:40;27.57;;;25.13;;
3000;SDS011;1510;51.072;6.678;2023-02-20T08:20:07;37.80;;;34.70;;
3000;SDS011;1510;51.072;6.678;2023-02-20T08:22:34;35.50;;;33.00;;
3000;SDS011;1510;51.072;6.678;2023-02-20T08:25:03;28.17;;;25.53;;
3000;SDS011;1510;51.072;6.678;2023-02-20T08:27:30;19.90;;;17.97;;
3000;SDS011;1510;51.072;6.678;2023-02-20T08:30:02;22.20;;;20.03;;
3000;SDS011;1510;51.072;6.678;2023-02-20T08:32:29;19.83;;;17.23;;
3000;SDS011;1510;51.072;6.678;2023-02-20T08:34:56;21.40;;;19.40;;
3000;SDS011;1510;51.072;6.678;2023-02-20T08:37:23;22.23;;;15.10;;
3000;SDS011;1510;51.072;6.678;2023-02-20T08:39:49;20.30;;;17.43;;
3000;SDS011;1510;51.072;6.678;2023-02-20T08:42:17;21.83;;;19.53;;
3000;SDS011;1510;51.072;6.678;2023-02-20T08:44:47;21.47;;;19.30;;
3000;SDS011;1510;51.072;6.678;2023-02-20T08:47:14;20.63;;;18.43;;
3000;SDS011;1510;51.072;6.678;2023-02-20T08:49:45;22.13;;;16.27;;
3000;SDS011;1510;51.072;6.678;2023-02-20T08:52:12;19.93;;;15.73;;
3000;SDS011;1510;51.072;6.678;2023-02-20T08:54:39;23.40;;;18.33;;
3000;SDS011;1510;51.072;6.678;2023-02-20T08:57:06;20.57;;;18.67;;
3000;SDS011;1510;51.072;6.678;2023-02-20T08:59:34;21.60;;;19.30;;
3000;SDS011;1510;51.072;6.678;2023-02-20T09:02:03;25.23;;;22.63;;
3000;SDS011;1510;51.072;6.678;2023-02-20T09:04:31;20.63;;;18.43;;
3000;SDS011;1510;51.072;6.678;2023-02-20T09:07:00;22.00;;;16.33;;
3000;SDS011;1510;51.072;6.678;2023-02-20T09:09:35;19.37;;;14.00;;
3000;SDS011;1510;51.072;6.678;2023-02-20T09:12:04;15.43;;;12.47;;
3000;SDS011;1510;51.072;6.678;2023-02-20T09:14:31;20.63;;;14.30;;
3000;SDS011;1510;51.072;6.678;2023-02-20T09:17:00;24.37;;;14.13;;
3000;SDS011;1510;51.072;6.678;2023-02-20T09:19:27;25.70;;;13.67;;
3000;SDS011;1510;51.072;6.678;2023-02-20T09:21:54;20.83;;;12.80;;
3000;SDS011;1510;51.072;6.678;2023-02-20T09:24:20;25.03;;;17.13;;
3000;SDS011;1510;51.072;6.678;2023-02-20T09:26:47;25.20;;;14.97;;
3000;SDS011;1510;51.072;6.678;2023-02-20T09:29:14;17.73;;;12.80;;
3000;SDS011;1510;51.072;6.678;2023-02-20T09:31:42;27.30;;;15.13;;
3000;SDS011;1510;51.072;6.678;2023-02-20T09:34:09;19.97;;;12.30;;
3000;SDS011;1510;51.072;6.678;2023-02-20T09:36:35;16.50;;;13.63;;
3000;SDS011;1510;51.072;6.678;2023-02-20T09:39:02;16.00;;;10.33;;
3000;SDS011;1510;51.072;6.678;2023-02-20T09:41:34;22.07;;;13.07;;
3000;SDS011;1510;51.072;6.678;2023-02-20T09:44:11;17.20;;;9.70;;
3000;SDS011;1510;51.072;6.678;2023-02-20T09:46:44;29.07;;;12.20;;
3000;SDS011;1510;51.072;6.678;2023-02-20T09:49:14;22.37;;;11.20;;
3000;SDS011;1510;51.072;6.678;2023-02-20T09:51:44;24.20;;;10.10;;
3000;SDS011;1510;51.072;6.678;2023-02-20T09:54:21;17.33;;;9.77;;
3000;SDS011;1510;51.072;6.678;2023-02-20T09:56:53;22.03;;;9.37;;
3000;SDS011;1510;51.072;6.678;2023-02-20T09:59:24;22.07;;;11.50;;
3000;SDS011;1510;51.072;6.678;2023-02-20T10:01:56;13.80;;;9.80;;
3000;SDS011;1510;51.072;6.678;2023-02-20T10:04:27;25.33;;;9.63;;
3000;SDS011;1510;51.072;6.678;2023-02-20T10:07:00;13.67;;;7.90;;
3000;SDS011;1510;51.072;6.678;2023-02-20T10:09:38;22.50;;;11.57;;
3000;SDS011;1510;51.072;6.678;2023-02-20T10:12:08;14.33;;;10.60;;
3000;SDS011;1510;51.072;6.678;2023-02-20T10:14:57;12.80;;;9.03;;
3000;SDS011;1510;51.072;6.678;2023-02-20T10:17:37;23.57;;;11.30;;
3000;SDS011;1510;51.072;6.678;2023-02-20T10:20:11;17.67;;;9.87;;
3000;SDS011;1510;51.072;6.678;2023-02-20T10:22:44;15.60;;;9.97;;
3000;SDS011;1510;51.072;6.678;2023-02-20T10:25:21;17.40;;;9.73;;
3000;SDS011;1510;51.072;6.678;2023-02-20T10:27:53;18.70;;;10.10;;
3000;SDS011;1510;51.072;6.678;2023-02-20T10:30:28;17.87;;;10.57;;
3000;SDS011;1510;51.072;6.678;2023-02-20T10:33:01;21.47;;;10.97;;
3000;SDS011;1510;51.072;6.678;2023-02-20T10:35:39;16.53;;;11.40;;
3000;SDS011;1510;51.072;6.678;2023-02-20T10:38:11;17.00;;;9.77;;
3000;SDS011;1510;51.072;6.678;2023-02-20T10:40:41;25.00;;;11.60;;
3000;SDS011;1510;51.072;6.678;2023-02-20T10:43:14;19.42;;;10.77;;
3000;SDS011;1510;51.072;6.678;2023-02-20T10:45:48;19.17;;;10.30;;
3000;SDS011;1510;51.072;6.678;2023-02-20T10:48:21;23.83;;;11.60;;
3000;SDS011;1510;51.072;6.678;2023-02-20T10:50:52;15.43;;;9.60;;
3000;SDS011;1510;51.072;6.678;2023-02-20T10:53:28;22.47;;;10.63;;
3000;SDS011;1510;51.072;6.678;2023-02-20T10:56:01;15.37;;;9.13;;
3000;SDS011;1510;51.072;6.678;2023-02-20T10:58:36;18.93;;;9.33;;
3000;SDS011;1510;51.072;6.678;2023-02-20T11:01:08;17.93;;;9.67;;
3000;SDS011;1510;51.072;6.678;2023-02-20T11:03:40;23.17;;;10.90;;
3000;SDS011;1510;51.072;6.678;2023-02-20T11:06:13;20.20;;;10.90;;
3000;SDS011;1510;51.072;6.678;2023-02-20T11:08:43;15.80;;;8.20;;
3000;SDS011;1510;51.072;6.678;2023-02-20T11:11:22;19.40;;;10.30;;
3000;SDS011;1510;51.072;6.678;2023-02-20T11:13:52;16.47;;;10.60;;
3000;SDS011;1510;51.072;6.678;2023-02-20T11:16:23;22.53;;;8.60;;
3000;SDS011;1510;51.072;6.678;2023-02-20T11:19:01;17.40;;;9.27;;
3000;SDS011;1510;51.072;6.678;2023-02-20T11:21:33;16.30;;;11.40;;
3000;SDS011;1510;51.072;6.678;2023-02-20T11:24:16;18.73;;;9.90;;
3000;SDS011;1510;51.072;6.678;2023-02-20T11:26:44;23.33;;;11.00;;
3000;SDS011;1510;51.072;6.678;2023-02-20T11:29:15;21.60;;;10.03;;
3000;SDS011;1510;51.072;6.678;2023-02-20T11:31:44;23.10;;;11.27;;
3000;SDS011;1510;51.072;6.678;2023-02-20T11:34:15;26.20;;;11.03;;
3000;SDS011;1510;51.072;6.678;2023-02-20T11:36:44;21.30;;;10.30;;
3000;SDS011;1510;51.072;6.678;2023-02-20T11:39:16;19.60;;;10.00;;
3000;SDS011;1510;51.072;6.678;2023-02-20T11:41:52;16.47;;;9.97;;
3000;SDS011;1510;51.072;6.678;2023-02-20T11:44:31;15.93;;;9.63;;
3000;SDS011;1510;51.072;6.678;2023-02-20T11:47:18;25.57;;;12.30;;
3000;SDS011;1510;51.072;6.678;2023-02-20T11:49:48;27.90;;;15.03;;
3000;SDS011;1510;51.072;6.678;2023-02-20T11:52:15;23.10;;;12.80;;
3000;SDS011;1510;51.072;6.678;2023-02-20T11:54:47;23.27;;;13.00;;
3000;SDS011;1510;51.072;6.678;2023-02-20T11:57:35;24.70;;;14.87;;
3000;SDS011;1510;51.072;6.678;2023-02-20T12:00:09;21.10;;;11.73;;
3000;SDS011;1510;51.072;6.678;2023-02-20T12:02:47;26.67;;;12.07;;
3000;SDS011;1510;51.072;6.678;2023-02-20T12:05:17;22.70;;;13.30;;
3000;SDS011;1510;51.072;6.678;2023-02-20T12:07:53;23.10;;;13.67;;
3000;SDS011;1510;51.072;6.678;2023-02-20T12:10:34;24.53;;;13.30;;
3000;SDS011;1510;51.072;6.678;2023-02-20T12:13:10;19.10;;;11.90;;
3000;SDS011;1510;51.072;6.678;2023-02-20T12:15:39;19.60;;;8.90;;
3000;SDS011;1510;51.072;6.678;2023-02-20T12:21:18;19.80;;;10.70;;
3000;SDS011;1510;51.072;6.678;2023-02-20T12:24:06;21.20;;;13.30;;
3000;SDS011;1510;51.072;6.678;2023-02-20T12:26:48;16.07;;;11.20;;
3000;SDS011;1510;51.072;6.678;2023-02-20T12:29:28;21.60;;;12.27;;
3000;SDS011;1510;51.072;6.678;2023-02-20T12:32:09;20.93;;;10.50;;
3000;SDS011;1510;51.072;6.678;2023-02-20T12:34:52;26.30;;;11.97;;
3000;SDS011;1510;51.072;6.678;2023-02-20T12:37:29;28.13;;;12.73;;
3000;SDS011;1510;51.072;6.678;2023-02-20T12:40:11;18.50;;;11.30;;
3000;SDS011;1510;51.072;6.678;2023-02-20T12:42:55;17.50;;;10.23;;
3000;SDS011;1510;51.072;6.678;2023-02-20T12:45:29;23.03;;;11.70;;
3000;SDS011;1510;51.072;6.678;2023-02-20T12:48:09;14.47;;;9.33;;
3000;SDS011;1510;51.072;6.678;2023-02-20T12:50:47;19.70;;;10.20;;
3000;SDS011;1510;51.072;6.678;2023-02-20T12:53:40;19.10;;;10.53;;
3000;SDS011;1510;51.072;6.678;2023-02-20T12:56:27;19.20;;;12.63;;
3000;SDS011;1510;51.072;6.678;2023-02-20T12:59:04;21.43;;;10.83;;
3000;SDS011;1510;51.072;6.678;2023-02-20T13:01:40;21.13;;;10.20;;
3000;SDS011;1510;51.072;6.678;2023-02-20T13:04:15;14.77;;;9.17;;
3000;SDS011;1510;51.072;6.678;2023-02-20T13:06:51;22.53;;;11.77;;
3000;SDS011;1510;51.072;6.678;2023-02-20T13:09:25;20.50;;;11.13;;
3000;SDS011;1510;51.072;6.678;2023-02-20T13:11:57;25.03;;;11.63;;
3000;SDS011;1510;51.072;6.678;2023-02-20T13:14:29;23.03;;;12.10;;
3000;SDS011;1510;51.072;6.678;2023-02-20T13:17:08;18.73;;;9.97;;
3000;SDS011;1510;51.072;6.678;2023-02-20T13:19:44;19.87;;;11.30;;
3000;SDS011;1510;51.072;6.678;2023-02-20T13:22:19;23.13;;;11.80;;
3000;SDS011;1510;51.072;6.678;2023-02-20T13:24:47;19.77;;;9.20;;
3000;SDS011;1510;51.072;6.678;2023-02-20T13:27:26;19.90;;;11.13;;
3000;SDS011;1510;51.072;6.678;2023-02-20T13:29:57;26.70;;;14.03;;
3000;SDS011;1510;51.072;6.678;2023-02-20T13:32:26;20.97;;;11.40;;
3000;SDS011;1510;51.072;6.678;2023-02-20T13:34:54;21.60;;;11.47;;
3000;SDS011;1510;51.072;6.678;2023-02-20T13:38:11;22.87;;;11.67;;
3000;SDS011;1510;51.072;6.678;2023-02-20T13:40:44;27.25;;;15.23;;
3000;SDS011;1510;51.072;6.678;2023-02-20T13:43:28;30.70;;;14.53;;
3000;SDS011;1510;51.072;6.678;2023-02-20T13:46:16;35.13;;;14.57;;
3000;SDS011;1510;51.072;6.678;2023-02-20T13:48:50;26.90;;;14.47;;
3000;SDS011;1510;51.072;6.678;2023-02-20T13:51:34;26.70;;;14.20;;
3000;SDS011;1510;51.072;6.678;2023-02-20T13:54:34;28.30;;;12.83;;
3000;SDS011;1510;51.072;6.678;2023-02-20T13:57:15;26.77;;;13.03;;
3000;SDS011;1510;51.072;6.678;2023-02-20T13:59:43;24.97;;;13.03;;
3000;SDS011;1510;51.072;6.678;2023-02-20T14:02:15;20.60;;;12.00;;
3000;SDS011;1510;51.072;6.678;2023-02-20T14:04:55;24.97;;;11.37;;
3000;SDS011;1510;51.072;6.678;2023-02-20T14:07:31;20.20;;;11.60;;
3000;SDS011;1510;51.072;6.678;2023-02-20T14:10:13;21.80;;;12.20;;
3000;SDS011;1510;51.072;6.678;2023-02-20T14:12:45;20.53;;;11.77;;
3000;SDS011;1510;51.072;6.678;2023-02-20T14:15:33;21.80;;;11.10;;
3000;SDS011;1510;51.072;6.678;2023-02-20T14:18:13;13.70;;;8.03;;
3000;SDS011;1510;51.072;6.678;2023-02-20T14:20:42;20.53;;;9.60;;
3000;SDS011;1510;51.072;6.678;2023-02-20T14:23:20;24.70;;;10.67;;
3000;SDS011;1510;51.072;6.678;2023-02-20T14:25:54;19.90;;;11.67;;
3000;SDS011;1510;51.072;6.678;2023-02-20T14:28:23;23.43;;;12.53;;
3000;SDS011;1510;51.072;6.678;2023-02-20T14:31:03;21.50;;;10.00;;
3000;SDS011;1510;51.072;6.678;2023-02-20T14:33:33;21.93;;;9.80;;
3000;SDS011;1510;51.072;6.678;2023-02-20T14:36:10;18.20;;;10.87;;
3000;SDS011;1510;51.072;6.678;2023-02-20T14:38:48;18.63;;;10.10;;
3000;SDS011;1510;51.072;6.678;2023-02-20T14:41:36;20.07;;;10.40;;
3000;SDS011;1510;51.072;6.678;2023-02-20T14:44:05;20.60;;;12.00;;
3000;SDS011;1510;51.072;6.678;2023-02-20T14:46:42;19.90;;;10.23;;
3000;SDS011;1510;51.072;6.678;2023-02-20T14:49:10;21.70;;;10.00;;
3000;SDS011;1510;51.072;6.678;2023-02-20T14:51:38;23.30;;;10.20;;
3000;SDS011;1510;51.072;6.678;2023-02-20T14:54:14;16.20;;;8.57;;
3000;SDS011;1510;51.072;6.678;2023-02-20T14:56:43;14.97;;;8.70;;
3000;SDS011;1510;51.072;6.678;2023-02-20T14:59:15;22.13;;;9.67;;
3000;SDS011;1510;51.072;6.678;2023-02-20T15:01:50;15.30;;;8.30;;
3000;SDS011;1510;51.072;6.678;2023-02-20T15:04:20;15.77;;;10.67;;